Time;durP1;ratioP1;P1;durP2;ratioP2;P2;SDS_P1;SDS_P2;PMS_P1;PMS_P2;Temp;Humidity;BMP_temperature;BMP_pressure;BME280_temperature;BME280_humidity;BME280_pressure;Samples;Min_cycle;Max_cycle;Signal;HPM_P1;HPM_P2
2023/12/23 00:01:00;;;;;;;;;;;6.90;99.90;;;;;;5128275;27;19911;-68
2023/12/23 00:03:26;;;;;;;;;;;6.90;99.90;;;;;;5146379;27;20295;-68
2023/12/23 00:05:53;;;;;;;;;;;6.90;99.90;;;;;;5119461;27;19915;-68
2023/12/23 00:08:18;;;;;;;;;;;6.90;99.90;;;;;;5137932;27;19911;-68
2023/12/23 00:10:44;;;;;;;;;;;6.90;99.90;;;;;;5119361;27;19921;-68
2023/12/23 00:13:09;;;;;;;;;;;6.90;99.90;;;;;;5144395;27;19988;-68
2023/12/23 00:15:35;;;;;;;;;;;6.90;99.90;;;;;;5146082;27;20454;-68
2023/12/23 00:18:00;;;;;;;;;;;6.90;99.90;;;;;;5130361;27;20533;-68
2023/12/23 00:20:26;;;;;;;;;;;6.90;99.90;;;;;;5144850;27;19907;-69
2023/12/23 00:22:51;;;;;;;;;;;6.90;99.90;;;;;;5146456;27;19920;-68
2023/12/23 00:25:17;;;;;;;;;;;6.90;99.90;;;;;;5119711;27;19919;-68
2023/12/23 00:27:42;;;;;;;;;;;6.80;99.90;;;;;;5146001;27;20005;-68
2023/12/23 00:30:08;;;;;;;;;;;6.90;99.90;;;;;;5137399;27;19911;-68
2023/12/23 00:32:34;;;;;;;;;;;6.90;99.90;;;;;;5142278;27;20018;-68
2023/12/23 00:34:59;;;;;;;;;;;6.80;99.90;;;;;;5142390;27;19934;-68
2023/12/23 00:37:25;;;;;;;;;;;6.80;99.90;;;;;;5145493;27;19915;-68
2023/12/23 00:39:50;;;;;;;;;;;6.80;99.90;;;;;;5127479;27;20010;-68
2023/12/23 00:42:16;;;;;;;;;;;6.90;99.90;;;;;;5133324;27;19907;-68
2023/12/23 00:44:41;;;;;;;;;;;6.80;99.90;;;;;;5125653;28;19908;-68
2023/12/23 00:47:07;;;;;;;;;;;6.90;99.90;;;;;;5125136;27;19912;-68
2023/12/23 00:49:33;;;;;;;;;;;6.80;99.90;;;;;;5145918;27;19918;-68
2023/12/23 00:52:00;;;;;;;;;;;6.80;99.90;;;;;;5145863;27;19911;-68
2023/12/23 00:54:26;;;;;;;;;;;6.80;99.90;;;;;;5145726;27;20034;-68
2023/12/23 00:56:51;;;;;;;;;;;6.80;99.90;;;;;;5127343;27;20284;-68
2023/12/23 00:59:17;;;;;;;;;;;6.80;99.90;;;;;;5118458;27;19930;-68
2023/12/23 01:01:43;;;;;;;;;;;6.80;99.90;;;;;;5127093;27;19907;-68
2023/12/23 01:04:09;;;;;;;;;;;6.80;99.90;;;;;;5137314;27;19911;-68
2023/12/23 01:06:34;;;;;;;;;;;6.80;99.90;;;;;;5146164;27;20005;-68
2023/12/23 01:08:59;;;;;;;;;;;6.80;99.90;;;;;;5137499;27;19911;-68
2023/12/23 01:11:25;;;;;;;;;;;6.80;99.90;;;;;;5143018;27;20307;-68
2023/12/23 01:13:50;;;;;;;;;;;6.80;99.90;;;;;;5139563;27;19912;-68
2023/12/23 01:16:16;;;;;;;;;;;6.80;99.90;;;;;;5135056;27;19952;-68
2023/12/23 01:18:42;;;;;;;;;;;6.80;99.90;;;;;;5142635;27;20269;-69
2023/12/23 01:21:08;;;;;;;;;;;6.80;99.90;;;;;;5133334;27;19915;-68
2023/12/23 01:23:33;;;;;;;;;;;6.80;99.90;;;;;;5142390;27;19915;-68
2023/12/23 01:25:59;;;;;;;;;;;6.80;99.90;;;;;;5138157;27;20017;-68
2023/12/23 01:28:24;;;;;;;;;;;6.80;99.90;;;;;;5149244;27;19915;-69
2023/12/23 01:30:50;;;;;;;;;;;6.80;99.90;;;;;;5130527;27;20338;-68
2023/12/23 01:33:15;;;;;;;;;;;6.80;99.90;;;;;;5149256;27;19960;-69
2023/12/23 01:35:41;;;;;;;;;;;6.80;99.90;;;;;;5138723;27;19907;-68
2023/12/23 01:38:06;;;;;;;;;;;6.80;99.90;;;;;;5145637;27;19911;-68
2023/12/23 01:40:32;;;;;;;;;;;6.80;99.90;;;;;;5141377;27;20028;-68
2023/12/23 01:42:58;;;;;;;;;;;6.80;99.90;;;;;;5147226;27;19918;-68
2023/12/23 01:45:23;;;;;;;;;;;6.80;99.90;;;;;;5140425;27;19917;-68
2023/12/23 01:47:49;;;;;;;;;;;6.80;99.90;;;;;;5134630;27;19916;-68
2023/12/23 01:50:17;;;;;;;;;;;6.80;99.90;;;;;;5127571;27;19979;-68
2023/12/23 01:52:44;;;;;;;;;;;6.80;99.90;;;;;;5128563;27;19915;-69
2023/12/23 01:55:10;;;;;;;;;;;6.80;99.90;;;;;;5137289;27;20372;-68
2023/12/23 01:57:36;;;;;;;;;;;6.80;99.90;;;;;;5149436;27;19946;-69
2023/12/23 02:00:01;;;;;;;;;;;6.80;99.90;;;;;;5148963;27;19931;-69
2023/12/23 02:02:30;;;;;;;;;;;6.80;99.90;;;;;;5148800;27;19964;-68
2023/12/23 02:04:55;;;;;;;;;;;6.80;99.90;;;;;;5140733;27;19911;-68
2023/12/23 02:07:21;;;;;;;;;;;6.80;99.90;;;;;;5148747;27;19911;-68
2023/12/23 02:09:47;;;;;;;;;;;6.80;99.90;;;;;;5149223;27;19914;-68
2023/12/23 02:12:22;;;;;;;;;;;6.80;99.90;;;;;;5138028;27;20407;-68
2023/12/23 02:14:51;;;;;;;;;;;6.80;99.90;;;;;;5149391;27;19911;-68
2023/12/23 02:17:16;;;;;;;;;;;6.80;99.90;;;;;;5148350;27;19911;-68
2023/12/23 02:19:42;;;;;;;;;;;6.80;99.90;;;;;;5148882;27;19913;-68
2023/12/23 02:22:07;;;;;;;;;;;6.80;99.90;;;;;;5148808;27;19946;-68
2023/12/23 02:24:33;;;;;;;;;;;6.80;99.90;;;;;;5142763;27;20111;-68
2023/12/23 02:27:07;;;;;;;;;;;6.80;99.90;;;;;;5139339;27;20422;-68
2023/12/23 02:29:33;;;;;;;;;;;6.80;99.90;;;;;;5128393;27;20372;-68
2023/12/23 02:31:59;;;;;;;;;;;6.80;99.90;;;;;;5141152;27;19992;-68
2023/12/23 02:34:25;;;;;;;;;;;6.80;99.90;;;;;;5139038;27;20007;-68
2023/12/23 02:36:50;;;;;;;;;;;6.80;99.90;;;;;;5148072;27;19993;-68
2023/12/23 02:39:16;;;;;;;;;;;6.80;99.90;;;;;;5139502;27;19907;-68
2023/12/23 02:41:41;;;;;;;;;;;6.80;99.90;;;;;;5146292;27;19998;-68
2023/12/23 02:44:07;;;;;;;;;;;6.80;99.90;;;;;;5148155;27;19922;-68
2023/12/23 02:46:32;;;;;;;;;;;6.80;99.90;;;;;;5147900;27;19990;-68
2023/12/23 02:48:59;;;;;;;;;;;6.80;99.90;;;;;;5141119;27;19922;-68
2023/12/23 02:51:25;;;;;;;;;;;6.80;99.90;;;;;;5137867;27;20010;-68
2023/12/23 02:53:51;;;;;;;;;;;6.80;99.90;;;;;;5133341;27;20006;-68
2023/12/23 02:56:16;;;;;;;;;;;6.80;99.90;;;;;;5144016;27;20019;-68
2023/12/23 02:58:42;;;;;;;;;;;6.80;99.90;;;;;;5140727;27;20347;-69
2023/12/23 03:01:07;;;;;;;;;;;6.80;99.90;;;;;;5147662;27;20366;-68
2023/12/23 03:03:33;;;;;;;;;;;6.80;99.90;;;;;;5139376;27;19938;-68
2023/12/23 03:05:59;;;;;;;;;;;6.80;99.90;;;;;;5121957;27;20529;-68
2023/12/23 03:08:24;;;;;;;;;;;6.80;99.90;;;;;;5128182;27;19957;-68
2023/12/23 03:10:50;;;;;;;;;;;6.80;99.90;;;;;;5148019;27;19911;-68
2023/12/23 03:13:16;;;;;;;;;;;6.80;99.90;;;;;;5125675;27;19911;-69
2023/12/23 03:15:41;;;;;;;;;;;6.80;99.90;;;;;;5129071;27;20378;-69
2023/12/23 03:18:07;;;;;;;;;;;6.80;99.90;;;;;;5120454;27;19917;-68
2023/12/23 03:20:32;;;;;;;;;;;6.80;99.90;;;;;;5147359;27;19939;-68
2023/12/23 03:22:58;;;;;;;;;;;6.80;99.90;;;;;;5147799;27;19917;-68
2023/12/23 03:25:23;;;;;;;;;;;6.80;99.90;;;;;;5130271;27;20776;-68
2023/12/23 03:27:49;;;;;;;;;;;6.80;99.90;;;;;;5126427;27;20370;-68
2023/12/23 03:30:14;;;;;;;;;;;6.80;99.90;;;;;;5117155;27;20387;-68
2023/12/23 03:32:40;;;;;;;;;;;6.80;99.90;;;;;;5147078;27;19925;-68
2023/12/23 03:35:06;;;;;;;;;;;6.80;99.90;;;;;;5138895;27;19911;-68
2023/12/23 03:37:31;;;;;;;;;;;6.80;99.90;;;;;;5129796;27;20001;-68
2023/12/23 03:39:57;;;;;;;;;;;6.80;99.90;;;;;;5147181;27;19911;-68
2023/12/23 03:42:22;;;;;;;;;;;6.80;99.90;;;;;;5138180;27;19907;-68
2023/12/23 03:44:48;;;;;;;;;;;6.80;99.90;;;;;;5132020;27;19911;-68
2023/12/23 03:47:13;;;;;;;;;;;6.80;99.90;;;;;;5144184;27;19963;-69
2023/12/23 03:49:39;;;;;;;;;;;6.80;99.90;;;;;;5146503;27;20235;-68
2023/12/23 03:52:05;;;;;;;;;;;6.80;99.90;;;;;;5146381;27;19915;-69
2023/12/23 03:54:30;;;;;;;;;;;6.80;99.90;;;;;;5137719;27;19911;-68
2023/12/23 03:56:56;;;;;;;;;;;6.70;99.90;;;;;;5146622;27;19923;-68
2023/12/23 03:59:22;;;;;;;;;;;6.80;99.90;;;;;;5135236;27;20034;-68
2023/12/23 04:01:47;;;;;;;;;;;6.80;99.90;;;;;;5139887;27;20612;-68
2023/12/23 04:04:13;;;;;;;;;;;6.80;99.90;;;;;;5146308;27;19911;-68
2023/12/23 04:06:38;;;;;;;;;;;6.80;99.90;;;;;;5146290;27;19958;-69
2023/12/23 04:09:06;;;;;;;;;;;6.80;99.90;;;;;;5130272;27;20014;-68
2023/12/23 04:11:34;;;;;;;;;;;6.80;99.90;;;;;;5143016;27;20002;-69
2023/12/23 04:14:00;;;;;;;;;;;6.80;99.90;;;;;;5146590;27;19964;-69
2023/12/23 04:16:25;;;;;;;;;;;6.80;99.90;;;;;;5146243;27;19938;-68
2023/12/23 04:18:51;;;;;;;;;;;6.80;99.90;;;;;;5113429;27;19907;-69
2023/12/23 04:21:16;;;;;;;;;;;6.90;99.90;;;;;;5143619;27;19946;-68
2023/12/23 04:23:42;;;;;;;;;;;6.90;99.90;;;;;;5146706;27;19911;-68
2023/12/23 04:26:08;;;;;;;;;;;6.90;99.90;;;;;;5138492;27;19922;-69
2023/12/23 04:28:33;;;;;;;;;;;6.90;99.90;;;;;;5129203;27;19911;-69
2023/12/23 04:30:59;;;;;;;;;;;6.90;99.90;;;;;;5137273;27;19926;-68
2023/12/23 04:33:24;;;;;;;;;;;6.90;99.90;;;;;;5145963;27;19918;-68
2023/12/23 04:35:50;;;;;;;;;;;6.90;99.90;;;;;;5138069;27;20007;-68
2023/12/23 04:38:16;;;;;;;;;;;6.90;99.90;;;;;;5146303;27;19911;-68
2023/12/23 04:40:41;;;;;;;;;;;7.00;99.90;;;;;;5146216;27;19931;-68
2023/12/23 04:43:07;;;;;;;;;;;6.90;99.90;;;;;;5144024;27;19907;-68
2023/12/23 04:45:32;;;;;;;;;;;6.90;99.90;;;;;;5146057;27;20019;-68
2023/12/23 04:47:59;;;;;;;;;;;7.00;99.90;;;;;;5145930;27;19968;-68
2023/12/23 04:50:24;;;;;;;;;;;6.90;99.90;;;;;;5137052;27;20226;-68
2023/12/23 04:52:51;;;;;;;;;;;7.00;99.90;;;;;;5131529;27;20441;-69
2023/12/23 04:55:17;;;;;;;;;;;7.00;99.90;;;;;;5126250;27;20498;-68
2023/12/23 04:57:42;;;;;;;;;;;7.00;99.90;;;;;;5141272;27;19919;-68
2023/12/23 05:00:08;;;;;;;;;;;7.00;99.90;;;;;;5134127;27;20018;-69
2023/12/23 05:02:33;;;;;;;;;;;7.00;99.90;;;;;;5133078;27;20332;-68
2023/12/23 05:04:59;;;;;;;;;;;7.00;99.90;;;;;;5150349;27;19911;-68
2023/12/23 05:07:24;;;;;;;;;;;7.10;99.90;;;;;;5149505;27;20594;-68
2023/12/23 05:09:50;;;;;;;;;;;7.10;99.90;;;;;;5144030;27;20248;-68
2023/12/23 05:12:15;;;;;;;;;;;7.10;99.90;;;;;;5144843;27;19907;-68
2023/12/23 05:14:41;;;;;;;;;;;7.10;99.90;;;;;;5145623;27;19908;-68
2023/12/23 05:17:06;;;;;;;;;;;7.10;99.90;;;;;;5136727;27;19916;-68
2023/12/23 05:19:33;;;;;;;;;;;7.10;99.90;;;;;;5121897;27;19915;-68
2023/12/23 05:21:58;;;;;;;;;;;7.10;99.90;;;;;;5150030;27;19911;-68
2023/12/23 05:24:24;;;;;;;;;;;7.10;99.90;;;;;;5146392;27;19922;-68
2023/12/23 05:26:50;;;;;;;;;;;7.10;99.90;;;;;;5124569;27;19954;-68
2023/12/23 05:29:15;;;;;;;;;;;7.10;99.90;;;;;;5149403;27;19910;-68
2023/12/23 05:31:42;;;;;;;;;;;7.10;99.90;;;;;;5131093;27;20418;-68
2023/12/23 05:34:08;;;;;;;;;;;7.20;99.90;;;;;;5150161;27;19919;-69
2023/12/23 05:36:33;;;;;;;;;;;7.10;99.90;;;;;;5124032;27;19911;-68
2023/12/23 05:38:59;;;;;;;;;;;7.20;99.90;;;;;;5142921;27;19911;-68
2023/12/23 05:41:26;;;;;;;;;;;7.20;99.90;;;;;;5115290;27;20293;-69
2023/12/23 05:43:52;;;;;;;;;;;7.20;99.90;;;;;;5130043;27;19911;-68
2023/12/23 05:46:17;;;;;;;;;;;7.20;99.90;;;;;;5135948;27;20104;-68
2023/12/23 05:48:43;;;;;;;;;;;7.20;99.90;;;;;;5149214;27;19918;-68
2023/12/23 05:51:10;;;;;;;;;;;7.20;99.90;;;;;;5149220;27;19915;-68
2023/12/23 05:53:36;;;;;;;;;;;7.20;99.90;;;;;;5132897;27;20375;-68
2023/12/23 05:56:04;;;;;;;;;;;7.20;99.90;;;;;;5149356;27;19914;-69
2023/12/23 05:58:30;;;;;;;;;;;7.20;99.90;;;;;;5148772;27;19915;-68
2023/12/23 06:00:56;;;;;;;;;;;7.20;99.90;;;;;;5148610;27;20312;-68
2023/12/23 06:03:21;;;;;;;;;;;7.20;99.90;;;;;;5138688;27;19915;-69
2023/12/23 06:05:47;;;;;;;;;;;7.20;99.90;;;;;;5129236;27;19915;-68
2023/12/23 06:08:13;;;;;;;;;;;7.20;99.90;;;;;;5148512;27;19918;-68
2023/12/23 06:10:39;;;;;;;;;;;7.20;99.90;;;;;;5148819;27;19918;-69
2023/12/23 06:13:04;;;;;;;;;;;7.30;99.90;;;;;;5145606;27;19916;-69
2023/12/23 06:15:30;;;;;;;;;;;7.30;99.90;;;;;;5121162;27;19922;-69
2023/12/23 06:17:55;;;;;;;;;;;7.30;99.90;;;;;;5133879;27;19911;-68
2023/12/23 06:20:21;;;;;;;;;;;7.20;99.90;;;;;;5146637;27;19918;-68
2023/12/23 06:22:46;;;;;;;;;;;7.30;99.90;;;;;;5121794;27;19957;-68
2023/12/23 06:25:12;;;;;;;;;;;7.30;99.90;;;;;;5121359;27;19962;-68
2023/12/23 06:27:37;;;;;;;;;;;7.30;99.90;;;;;;5136007;27;20428;-68
2023/12/23 06:30:03;;;;;;;;;;;7.30;99.90;;;;;;5135023;27;19915;-68
2023/12/23 06:32:28;;;;;;;;;;;7.30;99.90;;;;;;5136765;27;19919;-68
2023/12/23 06:34:54;;;;;;;;;;;7.30;99.90;;;;;;5142816;27;19919;-68
2023/12/23 06:37:19;;;;;;;;;;;7.30;99.90;;;;;;5147956;27;19918;-68
2023/12/23 06:39:45;;;;;;;;;;;7.30;99.90;;;;;;5129550;27;20360;-68
2023/12/23 06:42:10;;;;;;;;;;;7.30;99.90;;;;;;5145162;27;19918;-69
2023/12/23 06:44:36;;;;;;;;;;;7.30;99.90;;;;;;5129788;27;19911;-68
2023/12/23 06:47:02;;;;;;;;;;;7.30;99.90;;;;;;5129413;27;19915;-68
2023/12/23 06:49:28;;;;;;;;;;;7.30;99.90;;;;;;5147757;27;19910;-68
2023/12/23 06:51:54;;;;;;;;;;;7.30;99.90;;;;;;5145908;27;20256;-68
2023/12/23 06:54:19;;;;;;;;;;;7.30;99.90;;;;;;5147561;27;20278;-68
2023/12/23 06:56:44;;;;;;;;;;;7.30;99.90;;;;;;5147781;27;20076;-68
2023/12/23 06:59:12;;;;;;;;;;;7.30;99.90;;;;;;5147798;27;20359;-69
2023/12/23 07:01:38;;;;;;;;;;;7.30;99.90;;;;;;5147824;27;19934;-68
2023/12/23 07:04:04;;;;;;;;;;;7.30;99.90;;;;;;5139105;27;20372;-68
2023/12/23 07:06:30;;;;;;;;;;;7.30;99.90;;;;;;5138904;27;19915;-68
2023/12/23 07:08:55;;;;;;;;;;;7.30;99.90;;;;;;5135626;27;19938;-68
2023/12/23 07:11:21;;;;;;;;;;;7.30;99.90;;;;;;5144419;27;19911;-68
2023/12/23 07:13:46;;;;;;;;;;;7.30;99.90;;;;;;5139171;27;20264;-69
2023/12/23 07:16:12;;;;;;;;;;;7.30;99.90;;;;;;5147318;27;19953;-69
2023/12/23 07:18:37;;;;;;;;;;;7.30;99.90;;;;;;5136236;27;19907;-68
2023/12/23 07:21:03;;;;;;;;;;;7.30;99.90;;;;;;5127677;27;20323;-68
2023/12/23 07:23:29;;;;;;;;;;;7.30;99.90;;;;;;5117502;27;19918;-68
2023/12/23 07:25:54;;;;;;;;;;;7.40;99.90;;;;;;5125530;27;19962;-68
2023/12/23 07:28:19;;;;;;;;;;;7.30;99.90;;;;;;5144757;27;20018;-68
2023/12/23 07:30:45;;;;;;;;;;;7.40;99.90;;;;;;5147052;27;20301;-69
2023/12/23 07:33:13;;;;;;;;;;;7.40;99.90;;;;;;5147256;27;19911;-69
2023/12/23 07:35:39;;;;;;;;;;;7.40;99.90;;;;;;5125766;27;19911;-68
2023/12/23 07:38:05;;;;;;;;;;;7.30;99.90;;;;;;5131048;27;20298;-69
2023/12/23 07:40:31;;;;;;;;;;;7.40;99.90;;;;;;5145907;27;19950;-68
2023/12/23 07:42:57;;;;;;;;;;;7.40;99.90;;;;;;5143880;27;20472;-68
2023/12/23 07:45:23;;;;;;;;;;;7.40;99.90;;;;;;5119177;27;19911;-69
2023/12/23 07:47:49;;;;;;;;;;;7.30;99.90;;;;;;5146753;27;19919;-69
2023/12/23 07:50:14;;;;;;;;;;;7.40;99.90;;;;;;5145888;27;19942;-68
2023/12/23 07:52:40;;;;;;;;;;;7.40;99.90;;;;;;5142672;27;19946;-69
2023/12/23 07:55:06;;;;;;;;;;;7.40;99.90;;;;;;5126183;27;20209;-69
2023/12/23 07:57:31;;;;;;;;;;;7.40;99.90;;;;;;5145379;27;20673;-69
2023/12/23 07:59:57;;;;;;;;;;;7.40;99.90;;;;;;5145935;27;20002;-68
2023/12/23 08:02:22;;;;;;;;;;;7.40;99.90;;;;;;5145922;27;19911;-69
2023/12/23 08:04:48;;;;;;;;;;;7.40;99.90;;;;;;5138143;27;19954;-68
2023/12/23 08:07:14;;;;;;;;;;;7.40;99.90;;;;;;5126311;27;19915;-68
2023/12/23 08:09:39;;;;;;;;;;;7.40;99.90;;;;;;5137692;27;20002;-68
2023/12/23 08:12:06;;;;;;;;;;;7.40;99.90;;;;;;5131317;27;19922;-69
2023/12/23 08:14:31;;;;;;;;;;;7.40;99.90;;;;;;5127929;27;20015;-69
2023/12/23 08:16:57;;;;;;;;;;;7.40;99.90;;;;;;5122582;27;20396;-68
2023/12/23 08:19:22;;;;;;;;;;;7.50;99.90;;;;;;5125277;27;19918;-68
2023/12/23 08:21:48;;;;;;;;;;;7.50;99.90;;;;;;5132395;27;19911;-68
2023/12/23 08:24:13;;;;;;;;;;;7.50;99.90;;;;;;5133396;27;20386;-69
2023/12/23 08:26:39;;;;;;;;;;;7.50;99.90;;;;;;5120765;27;19922;-69
2023/12/23 08:29:05;;;;;;;;;;;7.50;99.90;;;;;;5123847;27;19915;-68
2023/12/23 08:31:30;;;;;;;;;;;7.40;99.90;;;;;;5122870;27;20265;-69
2023/12/23 08:33:56;;;;;;;;;;;7.50;99.90;;;;;;5125155;27;19908;-68
2023/12/23 08:36:22;;;;;;;;;;;7.50;99.90;;;;;;5143053;27;20043;-69
2023/12/23 08:38:49;;;;;;;;;;;7.50;99.90;;;;;;5126995;27;20012;-69
2023/12/23 08:41:14;;;;;;;;;;;7.50;99.90;;;;;;5133867;27;20240;-69
2023/12/23 08:43:40;;;;;;;;;;;7.50;99.90;;;;;;5145651;27;20115;-68
2023/12/23 08:46:05;;;;;;;;;;;7.50;99.90;;;;;;5145823;27;19969;-68
2023/12/23 08:48:31;;;;;;;;;;;7.50;99.90;;;;;;5136894;27;19911;-68
2023/12/23 08:50:56;;;;;;;;;;;7.50;99.90;;;;;;5118345;27;20398;-69
2023/12/23 08:53:22;;;;;;;;;;;7.50;99.90;;;;;;5136897;27;19944;-68
2023/12/23 08:55:47;;;;;;;;;;;7.50;99.90;;;;;;5139831;27;19998;-68
2023/12/23 08:58:13;;;;;;;;;;;7.50;99.90;;;;;;5141062;27;20352;-68
2023/12/23 09:00:39;;;;;;;;;;;7.50;99.90;;;;;;5139142;27;19918;-69
2023/12/23 09:03:04;;;;;;;;;;;7.50;99.90;;;;;;5137092;27;19954;-68
2023/12/23 09:05:30;;;;;;;;;;;7.60;99.90;;;;;;5131239;27;19948;-68
2023/12/23 09:07:55;;;;;;;;;;;7.50;99.90;;;;;;5134024;27;19915;-68
2023/12/23 09:10:21;;;;;;;;;;;7.50;99.90;;;;;;5144856;27;20324;-68
2023/12/23 09:12:46;;;;;;;;;;;7.60;99.90;;;;;;5142521;27;19986;-68
2023/12/23 09:15:12;;;;;;;;;;;7.60;99.90;;;;;;5134400;27;19955;-68
2023/12/23 09:17:37;;;;;;;;;;;7.50;99.90;;;;;;5135397;27;19911;-68
2023/12/23 09:20:04;;;;;;;;;;;7.60;99.90;;;;;;5145014;27;19956;-68
2023/12/23 09:22:30;;;;;;;;;;;7.60;99.90;;;;;;5144512;27;19916;-68
2023/12/23 09:24:55;;;;;;;;;;;7.60;99.90;;;;;;5125662;27;19915;-68
2023/12/23 09:27:21;;;;;;;;;;;7.60;99.90;;;;;;5124762;27;19923;-69
2023/12/23 09:29:46;;;;;;;;;;;7.60;99.90;;;;;;5144615;27;19956;-68
2023/12/23 09:32:12;;;;;;;;;;;7.60;99.90;;;;;;5145214;27;19923;-69
2023/12/23 09:34:38;;;;;;;;;;;7.60;99.90;;;;;;5145561;27;20295;-68
2023/12/23 09:37:03;;;;;;;;;;;7.60;99.90;;;;;;5145667;27;19907;-68
2023/12/23 09:39:29;;;;;;;;;;;7.60;99.90;;;;;;5136230;27;19911;-68
2023/12/23 09:41:55;;;;;;;;;;;7.60;99.90;;;;;;5136285;27;19915;-68
2023/12/23 09:44:20;;;;;;;;;;;7.60;99.90;;;;;;5123838;27;19992;-68
2023/12/23 09:46:46;;;;;;;;;;;7.60;99.90;;;;;;5145290;27;19915;-68
2023/12/23 09:49:12;;;;;;;;;;;7.60;99.90;;;;;;5149030;27;19952;-68
2023/12/23 09:51:37;;;;;;;;;;;7.70;99.90;;;;;;5149286;27;19954;-68
2023/12/23 09:54:05;;;;;;;;;;;7.60;99.90;;;;;;5149605;27;19915;-68
2023/12/23 09:56:31;;;;;;;;;;;7.60;99.90;;;;;;5148884;27;19918;-68
2023/12/23 09:58:56;;;;;;;;;;;7.70;99.90;;;;;;5149110;27;19911;-68
2023/12/23 10:01:22;;;;;;;;;;;7.70;99.90;;;;;;5148273;27;19911;-68
2023/12/23 10:03:49;;;;;;;;;;;7.70;99.90;;;;;;5148938;27;19911;-68
2023/12/23 10:06:15;;;;;;;;;;;7.70;99.90;;;;;;5147953;27;20278;-69
2023/12/23 10:08:41;;;;;;;;;;;7.70;99.90;;;;;;5140971;27;19918;-68
2023/12/23 10:11:07;;;;;;;;;;;7.70;99.90;;;;;;5146506;27;19911;-68
2023/12/23 10:13:32;;;;;;;;;;;7.70;99.90;;;;;;5108980;27;20560;-68
2023/12/23 10:15:58;;;;;;;;;;;7.70;99.90;;;;;;5123466;27;19940;-68
2023/12/23 10:18:24;;;;;;;;;;;7.70;99.90;;;;;;5123033;27;19912;-68
2023/12/23 10:20:49;;;;;;;;;;;7.70;99.90;;;;;;5132641;27;19922;-68
2023/12/23 10:23:16;;;;;;;;;;;7.70;99.90;;;;;;5126015;27;19911;-68
2023/12/23 10:25:41;;;;;;;;;;;7.70;99.90;;;;;;5127687;27;19946;-68
2023/12/23 10:28:08;;;;;;;;;;;7.70;99.90;;;;;;5127332;27;19950;-69
2023/12/23 10:30:34;;;;;;;;;;;7.70;99.90;;;;;;5128491;27;20597;-68
2023/12/23 10:33:04;;;;;;;;;;;7.70;99.90;;;;;;5104824;27;19971;-69
2023/12/23 10:35:32;;;;;;;;;;;7.70;99.90;;;;;;5118452;27;20034;-69
2023/12/23 10:37:58;;;;;;;;;;;7.80;99.90;;;;;;5123742;27;19912;-68
2023/12/23 10:40:25;;;;;;;;;;;7.80;99.90;;;;;;5130104;27;19911;-68
2023/12/23 10:42:51;;;;;;;;;;;7.80;99.90;;;;;;5126862;27;19969;-69
2023/12/23 10:45:19;;;;;;;;;;;7.80;99.90;;;;;;5107213;27;19912;-68
2023/12/23 10:47:45;;;;;;;;;;;7.70;99.90;;;;;;5125963;27;19951;-69
2023/12/23 10:50:12;;;;;;;;;;;7.80;99.90;;;;;;5125419;27;19912;-68
2023/12/23 10:52:37;;;;;;;;;;;7.80;99.90;;;;;;5126102;27;20679;-68
2023/12/23 10:55:03;;;;;;;;;;;7.80;99.90;;;;;;5107677;27;19956;-69
2023/12/23 10:57:31;;;;;;;;;;;7.80;99.90;;;;;;5106837;27;20362;-68
2023/12/23 10:59:56;;;;;;;;;;;7.80;99.90;;;;;;5135746;27;19911;-68
2023/12/23 11:02:27;;;;;;;;;;;7.80;99.90;;;;;;5137241;27;19911;-69
2023/12/23 11:04:54;;;;;;;;;;;7.80;99.90;;;;;;5105245;27;19921;-68
2023/12/23 11:07:22;;;;;;;;;;;7.80;99.90;;;;;;5145866;27;19919;-69
2023/12/23 11:09:48;;;;;;;;;;;7.80;99.90;;;;;;5134936;27;19911;-68
2023/12/23 11:12:15;;;;;;;;;;;7.80;99.90;;;;;;5140155;27;19911;-68
2023/12/23 11:14:40;;;;;;;;;;;7.80;99.90;;;;;;5126616;27;20697;-68
2023/12/23 11:17:26;;;;;;;;;;;7.80;99.90;;;;;;5128536;27;19956;-68
2023/12/23 11:19:58;;;;;;;;;;;7.80;99.90;;;;;;5127305;27;19911;-69
2023/12/23 11:22:24;;;;;;;;;;;7.80;99.90;;;;;;5111383;27;19919;-68
2023/12/23 11:24:50;;;;;;;;;;;7.80;99.90;;;;;;5138343;27;19911;-68
2023/12/23 11:27:29;;;;;;;;;;;7.80;99.90;;;;;;5143347;27;19927;-68
2023/12/23 11:29:54;;;;;;;;;;;7.80;99.90;;;;;;5145788;27;20331;-68
2023/12/23 11:32:24;;;;;;;;;;;7.80;99.90;;;;;;5145565;27;19926;-68
2023/12/23 11:34:49;;;;;;;;;;;7.80;99.90;;;;;;5146288;27;19957;-68
2023/12/23 11:37:15;;;;;;;;;;;7.80;99.90;;;;;;5145904;27;19965;-68
2023/12/23 11:39:41;;;;;;;;;;;7.80;99.90;;;;;;5145988;27;19918;-68
2023/12/23 11:42:07;;;;;;;;;;;7.80;99.90;;;;;;5124961;27;20392;-68
2023/12/23 11:44:32;;;;;;;;;;;7.80;99.90;;;;;;5138320;27;19912;-68
2023/12/23 11:46:58;;;;;;;;;;;7.80;99.90;;;;;;5146213;27;20029;-68
2023/12/23 11:49:23;;;;;;;;;;;7.90;99.90;;;;;;5146334;27;19957;-69
2023/12/23 11:51:49;;;;;;;;;;;7.80;99.90;;;;;;5146628;27;19998;-68
2023/12/23 11:54:15;;;;;;;;;;;7.90;99.90;;;;;;5138184;27;20478;-68
2023/12/23 11:56:40;;;;;;;;;;;7.90;99.90;;;;;;5146383;27;19911;-68
2023/12/23 11:59:06;;;;;;;;;;;7.90;99.90;;;;;;5112009;27;19919;-68
2023/12/23 12:01:33;;;;;;;;;;;7.90;99.90;;;;;;5144972;27;19963;-69
2023/12/23 12:03:58;;;;;;;;;;;7.90;99.90;;;;;;5147174;27;19911;-69
2023/12/23 12:06:24;;;;;;;;;;;7.90;99.90;;;;;;5146925;27;20443;-69
2023/12/23 12:08:50;;;;;;;;;;;7.90;99.90;;;;;;5142582;27;19912;-68
2023/12/23 12:11:16;;;;;;;;;;;7.80;99.90;;;;;;5139265;27;19915;-68
2023/12/23 12:13:44;;;;;;;;;;;7.90;99.90;;;;;;5143473;27;20060;-68
2023/12/23 12:16:09;;;;;;;;;;;7.90;99.90;;;;;;5142241;27;19911;-68
2023/12/23 12:18:35;;;;;;;;;;;7.90;99.90;;;;;;5129380;27;19915;-69
2023/12/23 12:21:01;;;;;;;;;;;7.90;99.90;;;;;;5127466;27;19911;-69
2023/12/23 12:23:26;;;;;;;;;;;7.90;99.90;;;;;;5146030;27;19911;-68
2023/12/23 12:25:56;;;;;;;;;;;7.90;99.90;;;;;;5140359;27;19911;-68
2023/12/23 12:28:22;;;;;;;;;;;7.90;99.90;;;;;;5134559;27;19994;-68
2023/12/23 12:30:47;;;;;;;;;;;7.90;99.90;;;;;;5145890;27;20006;-68
2023/12/23 12:33:14;;;;;;;;;;;7.90;99.90;;;;;;5146091;27;19914;-68
2023/12/23 12:35:40;;;;;;;;;;;7.90;99.90;;;;;;5128677;27;19918;-69
2023/12/23 12:38:07;;;;;;;;;;;7.90;99.90;;;;;;5146287;27;19918;-68
2023/12/23 12:40:33;;;;;;;;;;;7.90;99.90;;;;;;5145678;27;19994;-68
2023/12/23 12:43:04;;;;;;;;;;;7.90;99.90;;;;;;5136416;27;20609;-69
2023/12/23 12:45:34;;;;;;;;;;;7.90;99.90;;;;;;5127625;27;19919;-69
2023/12/23 12:48:00;;;;;;;;;;;7.90;99.90;;;;;;5145874;27;19920;-69
2023/12/23 12:50:26;;;;;;;;;;;7.90;99.90;;;;;;5134987;27;20461;-69
2023/12/23 12:52:57;;;;;;;;;;;7.90;99.90;;;;;;5123253;28;19911;-68
2023/12/23 12:55:24;;;;;;;;;;;7.90;99.90;;;;;;5110937;27;20442;-69
2023/12/23 12:57:49;;;;;;;;;;;7.90;99.90;;;;;;5125712;27;19912;-68
2023/12/23 13:00:15;;;;;;;;;;;7.90;99.90;;;;;;5126142;27;19935;-68
2023/12/23 13:02:42;;;;;;;;;;;7.90;99.90;;;;;;5138235;27;20022;-69
2023/12/23 13:05:08;;;;;;;;;;;7.90;99.90;;;;;;5146556;27;19911;-69
2023/12/23 13:07:33;;;;;;;;;;;7.90;99.90;;;;;;5143313;27;19915;-68
2023/12/23 13:10:00;;;;;;;;;;;7.90;99.90;;;;;;5140375;27;20378;-69
2023/12/23 13:12:25;;;;;;;;;;;7.90;99.90;;;;;;5127244;27;19911;-69
2023/12/23 13:14:51;;;;;;;;;;;7.90;99.90;;;;;;5139194;27;19914;-69
2023/12/23 13:17:16;;;;;;;;;;;7.90;99.90;;;;;;5145587;27;19946;-69
2023/12/23 13:19:42;;;;;;;;;;;8.00;99.90;;;;;;5127143;27;19911;-69
2023/12/23 13:22:08;;;;;;;;;;;7.90;99.90;;;;;;5147855;27;19955;-69
2023/12/23 13:24:33;;;;;;;;;;;8.00;99.90;;;;;;5121936;27;19911;-68
2023/12/23 13:26:59;;;;;;;;;;;8.00;99.90;;;;;;5137322;27;20001;-68
2023/12/23 13:29:24;;;;;;;;;;;8.00;99.90;;;;;;5149244;27;19919;-69
2023/12/23 13:31:50;;;;;;;;;;;8.00;99.90;;;;;;5148754;27;20022;-69
2023/12/23 13:34:15;;;;;;;;;;;8.00;99.90;;;;;;5140906;27;20002;-68
2023/12/23 13:36:41;;;;;;;;;;;8.00;99.90;;;;;;5122345;27;19950;-68
2023/12/23 13:39:07;;;;;;;;;;;8.00;99.90;;;;;;5142269;27;19966;-68
2023/12/23 13:41:33;;;;;;;;;;;8.00;99.90;;;;;;5135670;27;19907;-68
2023/12/23 13:43:59;;;;;;;;;;;7.90;99.90;;;;;;5149579;27;19911;-69
2023/12/23 13:46:25;;;;;;;;;;;8.00;99.90;;;;;;5146468;27;19991;-68
2023/12/23 13:48:50;;;;;;;;;;;8.00;99.90;;;;;;5125148;27;20314;-69
2023/12/23 13:51:16;;;;;;;;;;;8.00;99.90;;;;;;5134971;27;19916;-69
2023/12/23 13:53:43;;;;;;;;;;;8.00;99.90;;;;;;5126069;27;20506;-68
2023/12/23 13:56:09;;;;;;;;;;;8.00;99.90;;;;;;5132496;27;19942;-69
2023/12/23 13:58:35;;;;;;;;;;;8.00;99.90;;;;;;5136664;27;20406;-69
2023/12/23 14:01:01;;;;;;;;;;;8.00;99.90;;;;;;5127152;27;19915;-69
2023/12/23 14:03:26;;;;;;;;;;;8.00;99.90;;;;;;5126312;27;19959;-69
2023/12/23 14:05:52;;;;;;;;;;;8.00;99.90;;;;;;5124020;27;19928;-69
2023/12/23 14:08:17;;;;;;;;;;;8.00;99.90;;;;;;5126138;27;19941;-69
2023/12/23 14:10:44;;;;;;;;;;;8.00;99.90;;;;;;5137946;27;20260;-69
2023/12/23 14:13:09;;;;;;;;;;;8.00;99.90;;;;;;5145050;27;19998;-69
2023/12/23 14:15:35;;;;;;;;;;;8.00;99.90;;;;;;5119823;27;20038;-69
2023/12/23 14:18:03;;;;;;;;;;;8.00;99.90;;;;;;5137588;27;20402;-68
2023/12/23 14:20:28;;;;;;;;;;;8.00;99.90;;;;;;5144029;27;19998;-68
2023/12/23 14:22:54;;;;;;;;;;;8.00;99.90;;;;;;5148193;27;20010;-69